Airfield :
LOGIN :

Register | Disclaimer

   EN    FR    IT 

 










Legend :    VFR   Marginal VFR   IFR   Intensive IFR   Very Intensive IFR
Visi :
Ceiling :
>= 8 km
>= 3000ft
5 to 8 km
1000 to 3000 ft
1500m to 5 km
500 to 1000 ft
800 to 1500m
200 to 500 ft
< 800m
< 200 ft
Symbols :   Thunderstorms  Fog  Heavy snow  Heavy precipitations  Wind > 20 kt
SIGMETs :     Misc.  Thunderstorms  Icing  Turbulence  Mountain Waves  Volcanic Ashes







- Airport Elevation : 138 ft
- IATA code : BIO


LEBB - Bilbao

CURRENT METAR :
  • 180500Z 00000KT 9999 FEW018 BKN028 21/19 Q1015 NOSIG

EXPIRED METARs :
  • 180430Z VRB01KT 9999 BKN018 21/20 Q1015 NOSIG
  • 180400Z VRB01KT 9999 SCT018 BKN036 21/19 Q1015 NOSIG
  • 180330Z VRB02KT 9999 FEW020 BKN038 21/19 Q1015 NOSIG
  • 180300Z VRB01KT 9999 FEW020 BKN038 22/19 Q1015 NOSIG
  • 180230Z AUTO VRB02KT 9999 BKN039/// 22/19 Q1016
  • 180200Z AUTO VRB01KT 9999 BKN039/// 22/20 Q1016

TAF TAF LEBB
Valid from the 18 at 00:00 until the 19 at 00:00 UTC


172300Z 1800/1824 05004KT 9999 SCT018 BKN035 TX28/1815Z TN19/1804Z
PROB40
TEMPO 1802/1808 3000 BR BKN014
BECMG 1811/1813 32010KT
PROB40
TEMPO 1812/1818 RA SHRA SCT030TCU
PROB30
TEMPO 1813/1818 VRB12G22KT SHRA TS SCT030CB
No reported NOTAMs for that airfield.



MET'MAP, your aeronautical weather chart ! - Copyright ORBIFLY December 2007 - Disclaimer

ORBIFLY MET'MAP TEAM :

Programming & Development : Alexandra Zaïnal
Concept & Development : Baudouin d'Aumeries
Co-Development & Prog : Marc-Olivier Méhu
Technical & hardware support : Manuel Goepfert

Contact : metmap@orbifly.com




SOURCES & CREDITS :

   NOAA